Chessington, United Kingdom
Current Conditions -  °F | °C
As of 8:20 PM on Wednesday 26 Nov 2014 (Local Time) from EGLL Reporting Station
Light Rain Light Rain  
Wind Chill: 50°   Ceiling: 200
Heat Index: 50°   Visibility: 0.87mi
Dew Point: 48°   Wind: 2mph
Humidity: 94%   Direction: NA
Pressure: 29.77"   Gusts: NA
Location:  51.37°N, 0.3°W
Report Text: EGLL 262020Z VRB02KT 1400 -RA BKN002 OVC003 10/09 Q1008 TEMPO 1800
Loading
Personal Weather Stations






























Interactive Weather Map New forecast layout! Learn more

10-Day Weather Forecast

Advertisements
Track Severe Weather on mobile